Time;durP1;ratioP1;P1;durP2;ratioP2;P2;SDS_P1;SDS_P2;PMS_P1;PMS_P2;Temp;Humidity;BMP_temperature;BMP_pressure;BME280_temperature;BME280_humidity;BME280_pressure;Samples;Min_cycle;Max_cycle;Signal;HPM_P1;HPM_P2
2023/10/22 00:00:29;;;;;;;16.40;9.30;;;;;;;-149.70;100.00;76290.22;5011294;28;20498;-65
2023/10/22 00:02:56;;;;;;;15.00;10.05;;;;;;;-149.70;100.00;76282.09;5011476;28;20391;-67
2023/10/22 00:05:24;;;;;;;23.85;10.77;;;;;;;-149.70;100.00;76288.19;5010253;28;20061;-65
2023/10/22 00:07:50;;;;;;;13.85;9.25;;;;;;;-149.70;100.00;76292.25;5010562;28;20050;-65
2023/10/22 00:10:17;;;;;;;15.68;9.57;;;;;;;-149.70;100.00;76286.16;5011055;28;20460;-66
2023/10/22 00:12:43;;;;;;;14.48;8.73;;;;;;;-149.70;100.00;76294.28;5011648;28;20104;-65
2023/10/22 00:15:10;;;;;;;12.68;9.05;;;;;;;-149.70;100.00;76302.41;4993461;28;20046;-66
2023/10/22 00:17:37;;;;;;;15.85;9.43;;;;;;;-149.70;100.00;76296.31;5010665;28;20050;-65
2023/10/22 00:20:06;;;;;;;14.50;8.50;;;;;;;-149.70;100.00;76292.25;5011152;28;20080;-65
2023/10/22 00:22:32;;;;;;;13.07;8.43;;;;;;;-149.70;100.00;76298.34;5010865;28;20100;-65
2023/10/22 00:24:59;;;;;;;13.40;8.75;;;;;;;-149.70;100.00;76298.34;5010414;28;20076;-66
2023/10/22 00:27:26;;;;;;;14.63;9.25;;;;;;;-149.70;100.00;76306.50;5010502;28;20046;-66
2023/10/22 00:29:52;;;;;;;15.75;8.65;;;;;;;-149.70;100.00;76312.59;5010886;28;20510;-66
2023/10/22 00:32:19;;;;;;;15.13;9.23;;;;;;;-149.70;100.00;76320.72;5010682;28;20052;-66
2023/10/22 00:34:46;;;;;;;13.32;9.27;;;;;;;-149.70;100.00;76328.84;5010976;28;20046;-66
2023/10/22 00:37:12;;;;;;;15.68;8.60;;;;;;;-149.70;100.00;76326.81;5011124;28;20560;-66
2023/10/22 00:39:39;;;;;;;13.70;8.82;;;;;;;-149.70;100.00;76316.66;5010613;28;20046;-66
2023/10/22 00:42:05;;;;;;;15.88;8.73;;;;;;;-149.70;100.00;76324.78;5010274;28;20108;-66
2023/10/22 00:44:35;;;;;;;13.32;8.93;;;;;;;-149.70;100.00;76322.75;5009763;28;20054;-66
2023/10/22 00:47:04;;;;;;;13.60;8.52;;;;;;;-149.70;100.00;76324.78;5010670;28;20458;-65
2023/10/22 00:49:30;;;;;;;14.80;8.10;;;;;;;-149.70;100.00;76328.84;5010617;28;20096;-66
2023/10/22 00:51:57;;;;;;;11.38;6.93;;;;;;;-149.70;100.00;76316.66;5010316;28;20564;-66
2023/10/22 00:54:27;;;;;;;10.98;6.95;;;;;;;-149.70;100.00;76310.56;4993465;28;20054;-66
2023/10/22 00:56:55;;;;;;;8.50;6.20;;;;;;;-149.70;100.00;76306.50;4990556;28;20046;-66
2023/10/22 00:59:21;;;;;;;12.50;6.82;;;;;;;-149.70;100.00;76306.50;4990748;28;20050;-66
2023/10/22 01:01:48;;;;;;;9.85;5.50;;;;;;;-149.70;100.00;76308.53;4990752;28;20104;-66
2023/10/22 01:04:15;;;;;;;14.30;6.22;;;;;;;-149.70;100.00;76306.50;4989806;28;20138;-66
2023/10/22 01:06:42;;;;;;;14.82;5.90;;;;;;;-149.70;100.00;76308.53;4991127;28;20042;-66
2023/10/22 01:09:12;;;;;;;8.20;5.55;;;;;;;-149.70;100.00;76304.44;4990533;28;20065;-65
2023/10/22 01:11:59;;;;;;;9.57;4.80;;;;;;;-149.70;100.00;76310.56;4990929;28;20116;-66
2023/10/22 01:14:26;;;;;;;9.25;5.00;;;;;;;-149.70;100.00;76312.59;4990465;28;20046;-66
2023/10/22 01:16:52;;;;;;;10.85;5.70;;;;;;;-149.70;100.00;76310.56;4990610;28;20046;-66
2023/10/22 01:19:19;;;;;;;9.35;5.57;;;;;;;-149.70;100.00;76308.53;4990578;28;20413;-66
2023/10/22 01:21:45;;;;;;;7.90;4.53;;;;;;;-149.70;100.00;76312.59;4990417;28;20076;-66
2023/10/22 01:24:12;;;;;;;6.80;4.22;;;;;;;-149.70;100.00;76306.50;4990585;28;20042;-65
2023/10/22 01:26:42;;;;;;;8.18;4.35;;;;;;;-149.70;100.00;76296.31;4990551;28;20042;-66
2023/10/22 01:29:08;;;;;;;9.32;4.50;;;;;;;-149.70;100.00;76290.22;4990111;28;20074;-65
2023/10/22 01:31:36;;;;;;;10.77;4.47;;;;;;;-149.70;100.00;76300.38;4990297;28;20442;-66
2023/10/22 01:34:03;;;;;;;6.63;4.30;;;;;;;-149.70;100.00;76298.34;4990272;28;20061;-65
2023/10/22 01:36:30;;;;;;;8.38;5.28;;;;;;;-149.70;100.00;76286.16;4990103;28;20474;-66
2023/10/22 01:38:57;;;;;;;9.93;5.03;;;;;;;-149.70;100.00;76282.09;4990454;28;20467;-66
2023/10/22 01:41:23;;;;;;;12.13;5.20;;;;;;;-149.70;100.00;76288.19;4989954;28;20046;-66
2023/10/22 01:43:50;;;;;;;9.68;5.22;;;;;;;-149.70;100.00;76296.31;4990034;28;20097;-65
2023/10/22 01:46:17;;;;;;;11.10;5.38;;;;;;;-149.70;100.00;76292.25;4989822;28;20074;-65
2023/10/22 01:48:44;;;;;;;7.75;4.32;;;;;;;-149.70;100.00;76304.44;4990761;28;20062;-65
2023/10/22 01:51:10;;;;;;;8.95;4.63;;;;;;;-149.70;100.00;76298.34;4973214;28;20069;-65
2023/10/22 01:53:38;;;;;;;8.88;5.03;;;;;;;-149.70;100.00;76288.19;4972484;28;20583;-66
2023/10/22 01:56:04;;;;;;;14.02;5.32;;;;;;;-149.70;100.00;76294.28;4989770;28;20055;-66
2023/10/22 01:58:31;;;;;;;7.72;5.03;;;;;;;-149.70;100.00;76292.25;4990090;28;20494;-66
2023/10/22 02:01:04;;;;;;;14.15;5.13;;;;;;;-149.70;100.00;76298.34;4990287;28;20046;-66
2023/10/22 02:03:33;;;;;;;12.00;5.53;;;;;;;-149.70;100.00;76314.63;4990263;28;20080;-66
2023/10/22 02:09:41;;;;;;;10.20;5.28;;;;;;;-149.70;100.00;76316.66;4992131;28;20150;-65
2023/10/22 02:12:08;;;;;;;9.25;5.20;;;;;;;-149.70;100.00;76314.63;4992961;28;20046;-65
2023/10/22 02:14:36;;;;;;;9.60;5.22;;;;;;;-149.70;100.00;76320.72;4992073;28;20096;-65
2023/10/22 02:17:03;;;;;;;8.55;4.88;;;;;;;-149.70;100.00;76322.75;4992100;28;20071;-65
2023/10/22 02:19:30;;;;;;;7.18;4.32;;;;;;;-149.70;100.00;76332.91;4992457;28;20046;-66
2023/10/22 02:21:56;;;;;;;7.47;4.60;;;;;;;-149.70;100.00;76328.84;4991916;28;20078;-65
2023/10/22 02:24:23;;;;;;;7.45;4.25;;;;;;;-149.70;100.00;76320.72;4992814;28;20050;-65
2023/10/22 02:26:49;;;;;;;5.18;3.92;;;;;;;-149.70;100.00;76328.84;4992292;28;20068;-65
2023/10/22 02:29:16;;;;;;;7.25;4.00;;;;;;;-149.70;100.00;76326.81;4991358;28;20054;-65
2023/10/22 02:31:43;;;;;;;4.95;3.88;;;;;;;-149.70;100.00;76326.81;4992837;28;20481;-65
2023/10/22 02:34:10;;;;;;;7.97;4.00;;;;;;;-149.70;100.00;76330.88;4992020;28;20042;-65
2023/10/22 02:36:37;;;;;;;6.40;3.70;;;;;;;-149.70;100.00;76326.81;4992740;28;20058;-65
2023/10/22 02:39:08;;;;;;;8.65;4.13;;;;;;;-149.70;100.00;76326.81;4992347;28;20104;-65
2023/10/22 02:41:35;;;;;;;6.63;3.72;;;;;;;-149.70;100.00;76341.06;4991776;28;20418;-65
2023/10/22 02:44:01;;;;;;;8.55;3.55;;;;;;;-149.70;100.00;76355.28;4991685;28;20042;-66
2023/10/22 02:46:28;;;;;;;7.60;4.55;;;;;;;-149.70;100.00;76365.44;4992419;28;20050;-65
2023/10/22 02:48:55;;;;;;;6.70;4.35;;;;;;;-149.70;100.00;76381.72;4992508;28;20046;-65
2023/10/22 02:51:22;;;;;;;5.10;3.85;;;;;;;-149.70;100.00;76402.06;4992411;28;20054;-65
2023/10/22 02:53:49;;;;;;;8.65;3.88;;;;;;;-149.70;100.00;76402.06;5003619;28;20050;-65
2023/10/22 02:56:16;;;;;;;8.30;3.58;;;;;;;-149.70;100.00;76400.03;5010972;28;20354;-65
2023/10/22 02:58:42;;;;;;;5.43;3.78;;;;;;;-149.70;100.00;76404.09;5011891;28;20167;-66
2023/10/22 03:01:10;;;;;;;10.05;3.70;;;;;;;-149.70;100.00;76393.91;5011352;28;20053;-65
2023/10/22 03:03:38;;;;;;;6.55;3.22;;;;;;;-149.70;100.00;76400.03;5011569;28;20053;-65
2023/10/22 03:06:10;;;;;;;5.40;3.75;;;;;;;-149.70;100.00;76389.84;5011542;28;20161;-66
2023/10/22 03:08:39;;;;;;;5.70;3.53;;;;;;;-149.70;100.00;76385.78;5011269;28;20046;-66
2023/10/22 03:11:13;;;;;;;8.07;3.95;;;;;;;-149.70;100.00;76395.94;5011817;28;20402;-64
2023/10/22 03:13:39;;;;;;;6.97;3.67;;;;;;;-149.70;100.00;76385.78;5011114;28;20057;-65
2023/10/22 03:16:08;;;;;;;15.60;4.18;;;;;;;-149.70;100.00;76381.72;5011057;28;20521;-64
2023/10/22 03:18:34;;;;;;;9.38;3.78;;;;;;;-149.70;100.00;76393.91;5010607;28;20049;-65
2023/10/22 03:21:01;;;;;;;7.20;4.28;;;;;;;-149.70;100.00;76397.97;5011149;28;20462;-65
2023/10/22 03:23:28;;;;;;;9.18;4.55;;;;;;;-149.70;100.00;76397.97;5011021;28;20518;-65
2023/10/22 03:26:03;;;;;;;8.18;4.78;;;;;;;-149.70;100.00;76400.03;5010344;28;20045;-64
2023/10/22 03:28:30;;;;;;;7.13;3.85;;;;;;;-149.70;100.00;76397.97;5010971;28;20116;-65
2023/10/22 03:30:58;;;;;;;6.18;3.97;;;;;;;-149.70;100.00;76397.97;5010907;28;20113;-64
2023/10/22 03:33:24;;;;;;;7.28;4.40;;;;;;;-149.70;100.00;76402.06;5011838;28;20061;-65
2023/10/22 03:35:51;;;;;;;7.22;3.83;;;;;;;-149.70;100.00;76393.91;5011721;28;20128;-66
2023/10/22 03:38:18;;;;;;;8.38;4.70;;;;;;;-149.70;100.00;76397.97;5010430;28;20042;-65
2023/10/22 03:40:44;;;;;;;7.47;5.03;;;;;;;-149.70;100.00;76397.97;5011068;28;20053;-65
2023/10/22 03:43:11;;;;;;;7.78;4.43;;;;;;;-149.70;100.00;76389.84;4992895;28;20046;-65
2023/10/22 03:45:38;;;;;;;9.05;5.18;;;;;;;-149.70;100.00;76391.88;5010541;28;20054;-65
2023/10/22 03:48:04;;;;;;;7.28;5.03;;;;;;;-149.70;100.00;76393.91;5010772;28;20049;-65
2023/10/22 03:50:31;;;;;;;11.07;4.93;;;;;;;-149.70;100.00;76391.88;5009835;28;20050;-65
2023/10/22 03:52:58;;;;;;;7.07;4.47;;;;;;;-149.70;100.00;76385.78;5005376;28;20042;-65
2023/10/22 03:55:24;;;;;;;11.80;4.78;;;;;;;-149.70;100.00;76393.91;4991404;28;20084;-65
2023/10/22 03:57:51;;;;;;;10.60;4.90;;;;;;;-149.70;100.00;76389.84;4990178;28;20050;-65
2023/10/22 04:00:20;;;;;;;8.88;4.97;;;;;;;-149.70;100.00;76404.09;4990079;28;20054;-65
2023/10/22 04:02:47;;;;;;;6.78;4.70;;;;;;;-149.70;100.00;76410.19;4991105;28;20054;-66
2023/10/22 04:05:13;;;;;;;8.57;4.78;;;;;;;-149.70;100.00;76404.09;4990537;28;20502;-65
2023/10/22 04:07:40;;;;;;;9.75;4.50;;;;;;;-149.70;100.00;76416.28;4998692;28;20054;-66
2023/10/22 04:10:09;;;;;;;6.72;4.57;;;;;;;-149.70;100.00;76406.13;5010060;28;20042;-65
2023/10/22 04:12:36;;;;;;;8.35;4.78;;;;;;;-149.70;100.00;76404.09;5009870;28;20116;-65
2023/10/22 04:15:04;;;;;;;6.40;4.47;;;;;;;-149.70;100.00;76410.19;5009914;28;20053;-64
2023/10/22 04:17:30;;;;;;;7.93;4.18;;;;;;;-149.70;100.00;76410.19;5009536;28;20089;-65
2023/10/22 04:19:57;;;;;;;8.65;4.43;;;;;;;-149.70;100.00;76418.31;5010846;28;20129;-65
2023/10/22 04:22:24;;;;;;;7.50;4.80;;;;;;;-149.70;100.00;76422.38;4993217;28;20176;-65
2023/10/22 04:24:50;;;;;;;7.28;4.90;;;;;;;-149.70;100.00;76410.19;5010066;28;20061;-64
2023/10/22 04:27:17;;;;;;;6.20;4.20;;;;;;;-149.70;100.00;76412.22;5010013;28;20050;-65
2023/10/22 04:29:46;;;;;;;12.85;5.28;;;;;;;-149.70;100.00;76422.38;5009436;28;20140;-65
2023/10/22 04:32:13;;;;;;;7.40;4.78;;;;;;;-149.70;100.00;76418.31;5009486;28;20383;-64
2023/10/22 04:34:40;;;;;;;11.45;5.35;;;;;;;-149.70;100.00;76406.13;5009627;28;20050;-65
2023/10/22 04:37:07;;;;;;;9.93;4.70;;;;;;;-149.70;100.00;76408.16;5009512;28;20073;-65
2023/10/22 04:39:34;;;;;;;11.40;4.82;;;;;;;-149.70;100.00;76404.09;4992394;28;20420;-65
2023/10/22 04:42:01;;;;;;;9.07;4.60;;;;;;;-149.70;100.00;76406.13;5009627;28;20104;-65
2023/10/22 04:44:28;;;;;;;8.75;4.97;;;;;;;-149.70;100.00;76418.31;5008849;28;20082;-65
2023/10/22 04:46:56;;;;;;;7.38;4.82;;;;;;;-149.70;100.00;76420.34;5010783;28;20472;-66
2023/10/22 04:49:22;;;;;;;11.15;4.95;;;;;;;-149.70;100.00;76414.25;5009172;28;20054;-66
2023/10/22 04:51:49;;;;;;;14.88;5.32;;;;;;;-149.70;100.00;76422.38;5009968;28;20050;-65
2023/10/22 04:54:15;;;;;;;9.63;5.22;;;;;;;-149.70;100.00;76422.38;4993199;28;20117;-66
2023/10/22 04:56:42;;;;;;;13.10;6.05;;;;;;;-149.70;100.00;76406.13;4989422;28;20050;-66
2023/10/22 04:59:08;;;;;;;8.25;5.60;;;;;;;-149.70;100.00;76412.22;4989908;28;20125;-65
2023/10/22 05:01:35;;;;;;;9.57;5.57;;;;;;;-149.70;100.00;76416.28;4989882;28;20109;-66
2023/10/22 05:04:02;;;;;;;10.95;5.95;;;;;;;-149.70;100.00;76416.28;4989730;28;20074;-66
2023/10/22 05:06:30;;;;;;;9.95;6.13;;;;;;;-149.70;100.00;76422.38;4989315;28;20050;-65
2023/10/22 05:08:56;;;;;;;10.27;5.93;;;;;;;-149.70;100.00;76426.44;4973210;28;20053;-66
2023/10/22 05:11:23;;;;;;;8.73;6.35;;;;;;;-149.70;100.00;76426.44;4990089;28;20042;-66
2023/10/22 05:13:49;;;;;;;10.70;6.18;;;;;;;-149.70;100.00;76428.47;4989753;28;20050;-65
2023/10/22 05:16:16;;;;;;;11.27;6.03;;;;;;;-149.70;100.00;76422.38;4989173;28;20038;-66
2023/10/22 05:18:44;;;;;;;10.52;6.35;;;;;;;-149.70;100.00;76416.28;4989500;28;20109;-65
2023/10/22 05:21:10;;;;;;;10.02;6.30;;;;;;;-149.70;100.00;76434.59;4988766;28;20069;-66
2023/10/22 05:23:37;;;;;;;9.23;6.82;;;;;;;-149.70;100.00;76438.66;4989523;28;20042;-65
2023/10/22 05:26:08;;;;;;;9.70;6.30;;;;;;;-149.70;100.00;76436.63;4989536;28;20057;-66
2023/10/22 05:28:35;;;;;;;8.15;6.07;;;;;;;-149.70;100.00;76438.66;4988313;28;20078;-65
2023/10/22 05:31:20;;;;;;;13.75;6.63;;;;;;;-149.70;100.00;76430.53;4989027;28;20101;-66
2023/10/22 05:33:46;;;;;;;9.75;6.45;;;;;;;-149.70;100.00;76430.53;4989206;28;20054;-66
2023/10/22 05:36:22;;;;;;;10.50;7.55;;;;;;;-149.70;100.00;76442.72;4989051;28;20046;-66
2023/10/22 05:38:49;;;;;;;12.82;6.45;;;;;;;-149.70;100.00;76446.78;4988891;28;20049;-66
2023/10/22 05:41:21;;;;;;;11.52;6.78;;;;;;;-149.70;100.00;76442.72;4989446;28;20042;-65
2023/10/22 05:43:55;;;;;;;9.77;7.13;;;;;;;-149.70;100.00;76454.91;4993112;28;20087;-65
2023/10/22 05:46:23;;;;;;;9.60;6.78;;;;;;;-149.70;100.00;76456.94;4975646;28;20482;-65
2023/10/22 05:48:50;;;;;;;11.32;6.68;;;;;;;-149.70;100.00;76456.94;4992946;28;20053;-65
2023/10/22 05:51:17;;;;;;;8.20;6.68;;;;;;;-149.70;100.00;76452.88;4993397;28;20417;-65
2023/10/22 05:53:44;;;;;;;10.48;7.05;;;;;;;-149.70;100.00;76461.00;5003616;28;20054;-65
2023/10/22 05:56:11;;;;;;;11.00;6.63;;;;;;;-149.70;100.00;76450.84;5011917;28;20046;-65
2023/10/22 05:58:39;;;;;;;13.38;7.07;;;;;;;-149.70;100.00;76448.81;5012761;28;20095;-66
2023/10/22 06:01:06;;;;;;;15.73;7.30;;;;;;;-149.70;100.00;76452.88;5012227;28;20041;-65
2023/10/22 06:03:33;;;;;;;12.13;6.65;;;;;;;-149.70;100.00;76452.88;5011905;28;20100;-65
2023/10/22 06:06:00;;;;;;;10.02;6.53;;;;;;;-149.70;100.00;76452.88;5012095;28;20081;-66
2023/10/22 06:08:26;;;;;;;10.38;7.13;;;;;;;-149.70;100.00;76444.75;5012780;28;20042;-65
2023/10/22 06:10:53;;;;;;;11.90;6.78;;;;;;;-149.70;100.00;76446.78;5012377;28;20115;-65
2023/10/22 06:13:20;;;;;;;9.60;6.68;;;;;;;-149.70;100.00;76430.53;5011329;28;20498;-67
2023/10/22 06:15:46;;;;;;;9.27;6.10;;;;;;;-149.70;100.00;76432.56;5006984;28;20120;-69
2023/10/22 06:18:13;;;;;;;9.38;6.85;;;;;;;-149.70;100.00;76430.53;5009609;28;20073;-70
2023/10/22 06:20:40;;;;;;;9.93;6.40;;;;;;;-149.70;100.00;76424.41;5011905;28;20564;-66
2023/10/22 06:23:08;;;;;;;11.63;6.45;;;;;;;-149.70;100.00;76434.59;5012147;28;20077;-66
2023/10/22 06:25:35;;;;;;;10.77;5.82;;;;;;;-149.70;100.00;76434.59;5012473;28;20060;-66
2023/10/22 06:28:01;;;;;;;14.50;6.40;;;;;;;-149.70;100.00;76444.75;5012109;28;20050;-65
2023/10/22 06:30:28;;;;;;;10.65;5.30;;;;;;;-149.70;100.00;76456.94;5012264;28;20050;-66
2023/10/22 06:32:56;;;;;;;8.82;5.82;;;;;;;-149.70;100.00;76454.91;5012740;28;20046;-66
2023/10/22 06:35:28;;;;;;;8.68;5.95;;;;;;;-149.70;100.00;76461.00;5012293;28;20081;-66
2023/10/22 06:37:54;;;;;;;13.02;6.35;;;;;;;-149.70;100.00;76452.88;5012863;28;20121;-66
2023/10/22 06:40:22;;;;;;;6.35;5.45;;;;;;;-149.70;100.00;76452.88;5012235;28;20069;-66
2023/10/22 06:42:51;;;;;;;7.35;5.63;;;;;;;-149.70;100.00;76442.72;5012111;28;20128;-66
2023/10/22 06:45:18;;;;;;;7.13;5.43;;;;;;;-149.70;100.00;76456.94;5011052;28;20053;-66
2023/10/22 06:47:46;;;;;;;13.30;7.03;;;;;;;-149.70;100.00;76458.97;5011670;28;20410;-66
2023/10/22 06:50:13;;;;;;;9.32;5.22;;;;;;;-149.70;100.00;76450.84;5011687;28;20056;-66
2023/10/22 06:52:43;;;;;;;10.45;5.80;;;;;;;-149.70;100.00;76463.06;5008222;28;20129;-67
2023/10/22 06:55:10;;;;;;;12.93;6.47;;;;;;;-149.70;100.00;76463.06;4991989;28;20074;-66
2023/10/22 06:57:38;;;;;;;7.30;5.65;;;;;;;-149.70;100.00;76479.31;4975164;28;20053;-66
2023/10/22 07:00:08;;;;;;;14.70;7.10;;;;;;;-149.70;100.00;76471.19;4992288;28;20105;-66
2023/10/22 07:02:34;;;;;;;11.57;7.18;;;;;;;-149.70;100.00;76467.13;4992109;28;20129;-66
2023/10/22 07:05:02;;;;;;;12.40;6.50;;;;;;;-149.70;100.00;76467.13;4992360;28;20046;-66
2023/10/22 07:07:29;;;;;;;9.57;5.60;;;;;;;-149.70;100.00;76471.19;4992422;28;20486;-66
2023/10/22 07:09:55;;;;;;;9.02;5.72;;;;;;;-149.70;100.00;76481.34;4992892;28;20474;-67
2023/10/22 07:12:23;;;;;;;8.95;5.60;;;;;;;-149.70;100.00;76467.13;4992119;28;20573;-67
2023/10/22 07:14:50;;;;;;;9.00;4.95;;;;;;;-149.70;100.00;76477.28;4992207;28;20052;-67
2023/10/22 07:17:17;;;;;;;9.75;5.25;;;;;;;-149.70;100.00;76477.28;4992008;28;20407;-66
2023/10/22 07:19:43;;;;;;;12.48;6.05;;;;;;;-149.70;100.00;76475.25;4992093;28;20503;-66
2023/10/22 07:22:10;;;;;;;10.38;5.50;;;;;;;-149.70;100.00;76465.09;4991694;28;20046;-66
2023/10/22 07:24:36;;;;;;;11.57;5.45;;;;;;;-149.70;100.00;76456.94;4991888;28;20053;-66
2023/10/22 07:27:04;;;;;;;10.20;4.85;;;;;;;-149.70;100.00;76452.88;4992042;28;20556;-66
2023/10/22 07:29:31;;;;;;;7.65;4.70;;;;;;;-149.70;100.00;76467.13;4992014;28;20050;-66
2023/10/22 07:31:57;;;;;;;11.50;5.63;;;;;;;-149.70;100.00;76458.97;4992753;28;20074;-66
2023/10/22 07:34:24;;;;;;;9.13;5.38;;;;;;;-149.70;100.00;76440.69;4992163;28;20056;-66
2023/10/22 07:36:51;;;;;;;6.57;3.92;;;;;;;-149.70;100.00;76438.66;4991924;28;20062;-67
2023/10/22 07:39:17;;;;;;;8.15;4.40;;;;;;;-149.70;100.00;76434.59;4991784;28;20050;-66
2023/10/22 07:41:44;;;;;;;11.05;4.82;;;;;;;-149.70;100.00;76428.47;4991753;28;20050;-66
2023/10/22 07:44:10;;;;;;;8.57;4.20;;;;;;;-149.70;100.00;76426.44;4990836;28;20387;-65
2023/10/22 07:46:38;;;;;;;8.77;4.63;;;;;;;-149.70;100.00;76404.09;4991637;28;20069;-65
2023/10/22 07:49:05;;;;;;;6.82;3.60;;;;;;;-149.70;100.00;76402.06;4991326;28;20100;-65
2023/10/22 07:51:32;;;;;;;8.10;3.13;;;;;;;-149.70;100.00;76408.16;4991790;28;20564;-65
2023/10/22 07:53:58;;;;;;;7.13;2.88;;;;;;;-149.70;100.00;76385.78;5004299;28;20096;-65
2023/10/22 07:56:25;;;;;;;7.57;4.18;;;;;;;-149.70;100.00;76373.59;5010529;28;20067;-66
2023/10/22 07:58:51;;;;;;;4.65;2.85;;;;;;;-149.70;100.00;76369.53;5011570;28;20553;-66
2023/10/22 08:01:19;;;;;;;9.23;3.47;;;;;;;-149.70;100.00;76365.44;5011096;28;20049;-66
2023/10/22 08:03:47;;;;;;;4.82;2.60;;;;;;;-149.70;100.00;76359.34;5011121;28;20060;-65
2023/10/22 08:06:14;;;;;;;5.65;2.30;;;;;;;-149.70;100.00;76357.31;4991590;28;20050;-66
2023/10/22 08:08:40;;;;;;;4.13;2.30;;;;;;;-149.70;100.00;76349.19;4991044;28;20105;-66
2023/10/22 08:11:08;;;;;;;4.57;2.17;;;;;;;-149.70;100.00;76345.13;4990900;28;20546;-66
2023/10/22 08:13:35;;;;;;;3.95;2.30;;;;;;;-149.70;100.00;76343.09;4990796;28;20058;-65
2023/10/22 08:16:05;;;;;;;10.38;2.10;;;;;;;-149.70;100.00;76339.03;4991042;28;20466;-66
2023/10/22 08:18:32;;;;;;;5.45;2.05;;;;;;;-149.70;100.00;76345.13;4991462;28;20070;-65
2023/10/22 08:21:06;;;;;;;3.90;2.30;;;;;;;-149.70;100.00;76336.97;4991495;28;20486;-65
2023/10/22 08:23:34;;;;;;;4.15;2.15;;;;;;;-149.70;100.00;76330.88;4990718;28;20065;-65
2023/10/22 08:26:01;;;;;;;5.93;2.00;;;;;;;-149.70;100.00;76324.78;4991166;28;20572;-67
2023/10/22 08:28:27;;;;;;;3.15;2.00;;;;;;;-149.70;100.00;76310.56;4991085;28;20526;-67
2023/10/22 08:30:54;;;;;;;5.03;2.10;;;;;;;-149.70;100.00;76312.59;4991393;28;20137;-66
2023/10/22 08:33:20;;;;;;;3.95;2.10;;;;;;;-149.70;100.00;76304.44;4990546;28;20157;-66
2023/10/22 08:35:47;;;;;;;6.45;2.10;;;;;;;-149.70;100.00;76288.19;4990787;28;20092;-66
2023/10/22 08:38:15;;;;;;;7.65;2.13;;;;;;;-149.70;100.00;76280.06;4991425;28;20058;-66
2023/10/22 08:40:42;;;;;;;3.47;1.80;;;;;;;-149.70;100.00;76284.13;4990626;28;20137;-66
2023/10/22 08:43:18;;;;;;;7.68;1.70;;;;;;;-149.70;100.00;76278.03;4990243;28;20117;-65
2023/10/22 08:45:51;;;;;;;5.32;1.80;;;;;;;-149.70;100.00;76255.66;4990625;28;20054;-66
2023/10/22 08:48:19;;;;;;;6.75;2.80;;;;;;;-149.70;100.00;76241.41;4990634;28;20046;-66
2023/10/22 08:50:48;;;;;;;5.35;1.60;;;;;;;-149.70;100.00;76259.72;4990540;28;20139;-66
2023/10/22 08:53:15;;;;;;;4.60;1.80;;;;;;;-149.70;100.00;76253.63;4997301;28;20045;-66
2023/10/22 08:55:46;;;;;;;3.90;1.90;;;;;;;-149.70;100.00;76225.16;5009483;28;20560;-66
2023/10/22 08:58:19;;;;;;;7.20;2.13;;;;;;;-149.70;100.00;76241.41;5009616;28;20769;-66
2023/10/22 09:00:49;;;;;;;7.47;2.10;;;;;;;-149.70;100.00;76239.38;5009826;28;20062;-67
2023/10/22 09:03:18;;;;;;;5.07;1.50;;;;;;;-149.70;100.00;76229.22;5010062;28;20449;-66
2023/10/22 09:05:46;;;;;;;5.38;1.90;;;;;;;-149.70;100.00;76235.31;5009792;28;20128;-67
2023/10/22 09:08:15;;;;;;;4.00;1.58;;;;;;;-149.70;100.00;76259.72;5009639;28;20655;-66
2023/10/22 09:10:42;;;;;;;4.88;1.88;;;;;;;-149.70;100.00;76231.25;5009728;28;20454;-66
2023/10/22 09:13:22;;;;;;;7.43;2.75;;;;;;;-149.70;100.00;76247.53;5009977;28;20120;-66
2023/10/22 09:15:52;;;;;;;9.82;3.20;;;;;;;-149.70;100.00;76229.22;5009739;28;20060;-66
2023/10/22 09:18:18;;;;;;;8.10;3.33;;;;;;;-149.70;100.00;76235.31;5009878;28;20133;-66
2023/10/22 09:20:46;;;;;;;4.30;2.17;;;;;;;-149.70;100.00;76225.16;5009870;28;20125;-67
2023/10/22 09:23:23;;;;;;;6.20;1.77;;;;;;;-149.70;100.00;76239.38;5009384;28;20076;-68
2023/10/22 09:25:52;;;;;;;4.13;2.00;;;;;;;-149.70;100.00;76233.28;5010066;28;20042;-67
2023/10/22 09:28:26;;;;;;;2.05;1.40;;;;;;;-149.70;100.00;76225.16;5009857;28;20058;-67
2023/10/22 09:31:02;;;;;;;5.43;1.95;;;;;;;-149.70;100.00;76221.09;5009477;28;20068;-66
2023/10/22 09:33:39;;;;;;;4.75;1.90;;;;;;;-149.70;100.00;76223.13;5009986;28;20060;-67
2023/10/22 09:36:10;;;;;;;7.53;2.03;;;;;;;-149.70;100.00;76215.00;5009293;28;20053;-66
2023/10/22 09:38:45;;;;;;;5.43;1.83;;;;;;;-149.70;100.00;76212.97;5009258;28;20054;-67
2023/10/22 09:41:25;;;;;;;4.50;1.95;;;;;;;-149.70;100.00;76194.66;5009482;28;20042;-67
2023/10/22 09:43:59;;;;;;;3.95;2.20;;;;;;;-149.70;100.00;76204.81;5009589;28;20050;-65
2023/10/22 09:46:30;;;;;;;5.47;2.33;;;;;;;-149.70;100.00;76215.00;5009703;28;20464;-67
2023/10/22 09:48:59;;;;;;;8.15;1.98;;;;;;;-149.70;100.00;76210.94;5008641;28;20125;-66
2023/10/22 09:51:34;;;;;;;6.75;1.75;;;;;;;-149.70;100.00;76198.72;5009417;28;20050;-66
2023/10/22 09:54:06;;;;;;;6.07;1.50;;;;;;;-149.70;100.00;76200.75;4995322;28;20047;-66
2023/10/22 09:56:43;;;;;;;4.60;1.75;;;;;;;-149.70;100.00;76208.91;4989435;28;20491;-68
2023/10/22 09:59:11;;;;;;;5.15;1.48;;;;;;;-149.70;100.00;76200.75;4989398;28;20053;-66
2023/10/22 10:01:39;;;;;;;4.80;1.80;;;;;;;-149.70;100.00;76182.47;4989551;28;20054;-67
2023/10/22 10:04:06;;;;;;;5.25;2.08;;;;;;;-149.70;100.00;76162.13;4990043;28;20133;-66
2023/10/22 10:06:36;;;;;;;7.60;2.65;;;;;;;-149.70;100.00;76166.19;4972676;28;20489;-66
2023/10/22 10:09:03;;;;;;;9.05;2.35;;;;;;;-149.70;100.00;76158.06;4989427;28;20050;-66
2023/10/22 10:11:31;;;;;;;8.27;2.40;;;;;;;-149.70;100.00;76154.00;4989594;28;20053;-65
2023/10/22 10:13:58;;;;;;;5.88;2.17;;;;;;;-149.70;100.00;76143.84;4989909;28;20050;-66
2023/10/22 10:16:25;;;;;;;8.38;2.50;;;;;;;-149.70;100.00;76149.94;4989616;28;20054;-67
2023/10/22 10:18:58;;;;;;;5.68;1.70;;;;;;;-149.70;100.00;76145.88;4990191;28;20356;-68
2023/10/22 10:21:34;;;;;;;4.95;1.80;;;;;;;-149.70;100.00;76133.66;4989734;28;20113;-66
2023/10/22 10:24:22;;;;;;;5.57;1.73;;;;;;;-149.70;100.00;76125.53;4989559;28;20050;-66
2023/10/22 10:27:12;;;;;;;4.78;1.80;;;;;;;-149.70;100.00;76105.19;4989801;28;20137;-67
2023/10/22 10:29:39;;;;;;;9.10;1.80;;;;;;;-149.70;100.00;76088.94;4991518;28;20043;-68
2023/10/22 10:32:14;;;;;;;5.93;1.75;;;;;;;-149.70;100.00;76070.63;4992566;28;20129;-66
2023/10/22 10:34:47;;;;;;;6.72;1.80;;;;;;;-149.70;100.00;76060.47;4993381;28;20050;-67
2023/10/22 10:37:15;;;;;;;2.58;1.27;;;;;;;-149.70;100.00;76068.59;4992952;28;20046;-67
2023/10/22 10:39:43;;;;;;;7.07;2.33;;;;;;;-149.70;100.00;76056.41;4993212;28;20399;-67
2023/10/22 10:42:11;;;;;;;3.50;1.65;;;;;;;-149.70;100.00;76046.25;4992567;28;20043;-67
2023/10/22 10:44:58;;;;;;;7.60;1.98;;;;;;;-149.70;100.00;76023.88;4992601;28;20422;-66
2023/10/22 10:47:25;;;;;;;6.57;1.70;;;;;;;-149.70;100.00;75973.03;4993171;28;20046;-67
2023/10/22 10:50:07;;;;;;;3.83;1.70;;;;;;;-149.70;100.00;75954.75;4992898;28;20066;-67
2023/10/22 10:52:34;;;;;;;3.95;1.95;;;;;;;-149.70;100.00;75930.34;4994245;28;20109;-66
2023/10/22 10:55:08;;;;;;;9.38;2.38;;;;;;;-149.70;100.00;75922.22;5012528;28;20045;-66
2023/10/22 10:57:37;;;;;;;6.97;1.90;;;;;;;-149.70;100.00;75871.41;5012080;28;20058;-66
2023/10/22 11:00:06;;;;;;;6.25;1.67;;;;;;;-149.70;100.00;75879.53;5012230;28;20096;-67
2023/10/22 11:02:40;;;;;;;6.22;1.67;;;;;;;-149.70;100.00;75861.22;5012108;28;20101;-66
2023/10/22 11:05:10;;;;;;;6.50;1.85;;;;;;;-149.70;100.00;75865.28;5011880;28;20494;-67
2023/10/22 11:07:37;;;;;;;5.88;1.40;;;;;;;-149.70;100.00;75863.25;5012694;28;20091;-66
2023/10/22 11:10:11;;;;;;;4.00;1.42;;;;;;;-149.70;100.00;75853.09;5011480;28;20065;-66
2023/10/22 11:12:38;;;;;;;8.82;1.70;;;;;;;-149.70;100.00;75857.16;5012233;28;20046;-66
2023/10/22 11:15:08;;;;;;;5.45;1.45;;;;;;;-149.70;100.00;75855.13;5012141;28;20124;-67